1995 JOSTA (1995064S13042)


On this page: IBTrACS data - Map and Plots - Positions - Intensities - Original source data

Summary

Start Mar 4
End Mar 12
Basin SI
LMI 65 kt
Sources jtwc_sh
reunion
neumann
In WMO? Yes
Previous storm 1995 WARREN (SP)
Previous in basin 1995 WARREN (SP)
Concurrent storms 1995 VIOLET (SP)
1995 WARREN (SP)
1995 JOSTA (SI)
1995 KYLIE (SI)
Next in basin 1995 KYLIE (SI)
Next storm 1995 KYLIE (SI)

top of page IBTrACS Data: File Access

top of page HURSAT Data: File Access

Image of storm

top of page Plots:

Map of storm track will not appear if FTP is down
Time series of cyclone Maximum Sustained Wind will not appear if FTP is down
Time series of cyclone Minimum Central Pressure will not appear if FTP is down

top of page Track Data:Position

jtwc_sh reunion neumann
Date Lat Lon Lat Lon Lat Lon
1995-03-04 18:00:00 -12.5 41.5 -12.5 41.5
1995-03-05 00:00:00 -12.6 41.5 -12.6 41.5
1995-03-05 06:00:00 -12.6 41.6 -14.2 44.0 -12.6 41.6
1995-03-05 12:00:00 -12.7 41.6 -13.7 43.5 -12.7 41.6
1995-03-05 18:00:00 -12.7 41.7 -13.5 43.2 -12.7 41.7
1995-03-06 00:00:00 -12.8 41.7 -13.5 42.7 -12.8 41.7
1995-03-06 06:00:00 -12.8 41.8 -13.3 42.3 -12.8 41.8
1995-03-06 12:00:00 -12.9 41.8 -13.1 42.1 -12.9 41.8
1995-03-06 18:00:00 -12.9 41.9 -13.0 42.1 -12.9 41.9
1995-03-07 00:00:00 -13.0 41.9 -12.8 42.0 -13.0 41.9
1995-03-07 06:00:00 -13.0 42.0 -12.7 42.0 -13.0 42.0
1995-03-07 12:00:00 -13.1 42.0 -12.9 42.1 -13.1 42.0
1995-03-07 18:00:00 -13.1 42.1 -13.0 41.7 -13.1 42.1
1995-03-08 00:00:00 -13.2 42.1 -12.8 41.5 -13.2 42.1
1995-03-08 06:00:00 -13.3 42.2 -13.0 41.6 -13.3 42.2
1995-03-08 12:00:00 -13.4 42.3 -13.2 41.4 -13.4 42.3
1995-03-08 18:00:00 -13.5 42.4 -13.7 41.8 -13.5 42.4
1995-03-09 00:00:00 -13.6 42.5 -13.9 42.1 -13.6 42.5
1995-03-09 06:00:00 -13.7 42.6 -13.9 42.3 -13.7 42.6
1995-03-09 12:00:00 -13.8 42.7 -13.9 42.5 -13.8 42.7
1995-03-09 18:00:00 -13.9 42.9 -13.9 43.1 -13.9 42.9
1995-03-10 00:00:00 -14.0 43.1 -14.0 43.4 -14.0 43.1
1995-03-10 06:00:00 -14.1 43.5 -14.1 43.7 -14.1 43.5
1995-03-10 12:00:00 -14.2 44.0 -14.2 43.8 -14.2 44.0
1995-03-10 18:00:00 -14.3 44.5 -14.4 45.0 -14.3 44.5
jtwc_sh reunion neumann
1995-03-11 00:00:00 -14.4 45.0 -14.9 45.7 -14.4 45.0
1995-03-11 06:00:00 -14.5 45.6 -14.8 46.0 -14.5 45.6
1995-03-11 12:00:00 -14.6 46.1 -14.7 46.3 -14.6 46.1
1995-03-11 18:00:00 -14.5 46.5 -14.5 46.5 -14.5 46.5
1995-03-12 00:00:00 -14.4 46.8 -14.3 46.8 -14.4 46.8
1995-03-12 06:00:00 -14.3 47.0 -14.2 46.9 -14.3 47.0
1995-03-12 12:00:00 -14.2 47.2 -14.2 47.2
1995-03-12 18:00:00 -14.1 47.3 -14.1 47.3

top of pageTrack Data:Intensity

jtwc_sh reunion neumann
Date Wind Pres Wind Pres Wind Pres
1995-03-04 18:00:00 15. 15.
1995-03-05 00:00:00 15. 15.
1995-03-05 06:00:00 15. 20. 1005. 15.
1995-03-05 12:00:00 20. 20. 1005. 20.
1995-03-05 18:00:00 20. 24. 1002. 20.
1995-03-06 00:00:00 20. 25. 1000. 20.
1995-03-06 06:00:00 25. 25. 1000. 25.
1995-03-06 12:00:00 25. 30. 997. 25.
1995-03-06 18:00:00 25. 30. 997. 25.
1995-03-07 00:00:00 30. 30. 997. 30.
1995-03-07 06:00:00 30. 35. 992. 30.
1995-03-07 12:00:00 35. 35. 992. 35.
1995-03-07 18:00:00 35. 40. 988. 35.
1995-03-08 00:00:00 40. 40. 988. 40.
1995-03-08 06:00:00 40. 40. 988. 40.
1995-03-08 12:00:00 45. 40. 988. 45.
1995-03-08 18:00:00 45. 35. 992. 45.
1995-03-09 00:00:00 50. 35. 992. 50.
1995-03-09 06:00:00 55. 35. 992. 55.
1995-03-09 12:00:00 60. 45. 985. 60.
1995-03-09 18:00:00 65. 58. 972. 65.
1995-03-10 00:00:00 65. 58. 972. 65.
1995-03-10 06:00:00 65. 58. 972. 65.
1995-03-10 12:00:00 60. 50. 980. 60.
1995-03-10 18:00:00 60. 50. 980. 60.
jtwc_sh reunion neumann
1995-03-11 00:00:00 55. 55. 975. 55.
1995-03-11 06:00:00 50. 55. 975. 50.
1995-03-11 12:00:00 45. 50. 980. 45.
1995-03-11 18:00:00 40. 40. 990. 40.
1995-03-12 00:00:00 35. 35. 995. 35.
1995-03-12 06:00:00 30. 28. 1000. 30.
1995-03-12 12:00:00 25. 25.
1995-03-12 18:00:00 20. 20.

top of page Links to source data

Source Source file Format
jtwc_sh bsh161995.txt ATCF
reunion WMO-Best-Tracks.txt:Line=17060:josta WMO (old format)
neumann tracks.sh:Storm=1029:JOSTA:BSH161995:JTWC HURDAT